createdAt,value
2022-10-19T00:01:28.849Z,20.07
2022-10-19T00:04:02.432Z,17.03
2022-10-19T00:06:33.754Z,20.10
2022-10-19T00:09:05.305Z,21.40
2022-10-19T00:11:35.404Z,20.60
2022-10-19T00:14:04.619Z,21.53
2022-10-19T00:16:35.965Z,20.60
2022-10-19T00:19:07.603Z,20.73
2022-10-19T00:21:36.690Z,20.33
2022-10-19T00:24:07.232Z,19.60
2022-10-19T00:26:42.169Z,19.77
2022-10-19T00:29:12.121Z,19.70
2022-10-19T00:31:44.563Z,17.60
2022-10-19T00:34:14.963Z,20.07
2022-10-19T00:36:45.197Z,25.53
2022-10-19T00:39:16.443Z,18.27
2022-10-19T00:41:47.412Z,20.53
2022-10-19T00:44:19.002Z,18.37
2022-10-19T00:46:49.079Z,22.03
2022-10-19T00:49:29.813Z,28.23
2022-10-19T00:52:23.690Z,21.17
2022-10-19T00:54:57.327Z,21.97
2022-10-19T00:57:29.313Z,22.33
2022-10-19T01:00:00.914Z,20.83
2022-10-19T01:02:31.389Z,24.90
2022-10-19T01:07:59.822Z,19.37
2022-10-19T01:10:37.798Z,19.57
2022-10-19T01:13:41.467Z,20.27
2022-10-19T01:16:19.038Z,20.87
2022-10-19T01:18:53.335Z,21.23
2022-10-19T01:21:25.014Z,24.53
2022-10-19T01:24:08.752Z,22.10
2022-10-19T01:26:55.630Z,21.43
2022-10-19T01:29:36.195Z,23.10
2022-10-19T01:32:07.893Z,21.97
2022-10-19T01:34:51.343Z,23.03
2022-10-19T01:37:38.480Z,24.40
2022-10-19T01:40:22.144Z,21.70
2022-10-19T01:42:59.364Z,19.07
2022-10-19T01:45:30.927Z,23.10
2022-10-19T01:48:05.530Z,20.10
2022-10-19T01:50:37.105Z,24.07
2022-10-19T01:53:09.693Z,20.93
2022-10-19T01:55:41.248Z,22.33
2022-10-19T01:58:13.003Z,21.90
2022-10-19T02:00:44.828Z,20.40
2022-10-19T02:03:15.542Z,20.03
2022-10-19T02:05:47.438Z,16.87
2022-10-19T02:08:27.636Z,20.30
2022-10-19T02:10:58.389Z,18.53
2022-10-19T02:13:29.635Z,22.60
2022-10-19T02:16:01.654Z,22.67
2022-10-19T02:18:36.191Z,16.03
2022-10-19T02:21:07.080Z,19.37
2022-10-19T02:23:36.022Z,18.40
2022-10-19T02:26:05.286Z,18.10
2022-10-19T02:28:34.718Z,18.10
2022-10-19T02:31:03.705Z,16.70
2022-10-19T02:33:32.980Z,21.57
2022-10-19T02:36:02.027Z,18.07
2022-10-19T02:38:30.782Z,18.73
2022-10-19T02:41:28.267Z,16.50
2022-10-19T02:43:59.883Z,22.50
2022-10-19T02:46:37.576Z,21.83
2022-10-19T02:49:08.718Z,19.90
2022-10-19T02:51:39.861Z,19.80
2022-10-19T02:54:09.560Z,18.93
2022-10-19T02:56:38.187Z,20.63
2022-10-19T02:59:06.672Z,25.93
2022-10-19T03:01:35.327Z,24.50
2022-10-19T03:04:03.986Z,19.80
2022-10-19T03:06:32.550Z,27.90
2022-10-19T03:09:01.278Z,20.40
2022-10-19T03:11:29.770Z,16.70
2022-10-19T03:13:58.434Z,20.90
2022-10-19T03:16:27.184Z,19.43
2022-10-19T03:18:56.049Z,22.60
2022-10-19T03:21:24.699Z,14.20
2022-10-19T03:23:53.410Z,21.50
2022-10-19T03:26:22.096Z,22.83
2022-10-19T03:28:50.770Z,22.80
2022-10-19T03:31:19.539Z,17.30
2022-10-19T03:33:48.249Z,17.23
2022-10-19T03:36:32.167Z,19.57
2022-10-19T03:39:06.659Z,19.23
2022-10-19T03:41:37.664Z,19.63
2022-10-19T03:44:07.441Z,20.83
2022-10-19T03:46:36.901Z,19.13
2022-10-19T03:49:05.959Z,16.90
2022-10-19T03:51:35.793Z,23.50
2022-10-19T03:54:09.968Z,21.07
2022-10-19T03:56:40.686Z,20.63
2022-10-19T03:59:09.611Z,17.70
2022-10-19T04:01:41.343Z,20.70
2022-10-19T04:04:12.977Z,20.00
2022-10-19T04:06:44.270Z,19.03
2022-10-19T04:09:20.840Z,18.57
2022-10-19T04:11:50.320Z,18.03
2022-10-19T04:14:32.430Z,19.60
2022-10-19T04:16:52.540Z,25.80
2022-10-19T04:19:21.110Z,23.27
2022-10-19T04:21:50.664Z,23.53
2022-10-19T04:24:23.372Z,26.07
2022-10-19T04:26:54.211Z,21.30
2022-10-19T04:29:29.432Z,23.10
2022-10-19T04:31:55.613Z,27.20
2022-10-19T04:34:24.291Z,27.20
2022-10-19T04:36:53.872Z,28.73
2022-10-19T04:39:22.638Z,31.67
2022-10-19T04:41:51.187Z,28.13
2022-10-19T04:44:20.701Z,27.47
2022-10-19T04:46:49.398Z,25.60
2022-10-19T04:49:20.244Z,29.57
2022-10-19T04:51:48.510Z,29.80
2022-10-19T04:54:17.089Z,32.87
2022-10-19T04:56:45.667Z,24.93
2022-10-19T04:59:14.287Z,34.53
2022-10-19T05:01:46.369Z,30.73
2022-10-19T05:04:13.366Z,35.57
2022-10-19T05:06:41.931Z,29.63
2022-10-19T05:09:10.603Z,31.67
2022-10-19T05:11:39.213Z,32.47
2022-10-19T05:14:07.784Z,32.37
2022-10-19T05:16:36.444Z,34.47
2022-10-19T05:19:05.230Z,36.67
2022-10-19T05:21:33.898Z,32.07
2022-10-19T05:24:04.988Z,35.13
2022-10-19T05:26:39.089Z,33.30
2022-10-19T05:29:25.369Z,36.13
2022-10-19T05:31:54.539Z,38.70
2022-10-19T05:34:27.646Z,31.67
2022-10-19T05:36:55.629Z,44.67
2022-10-19T05:39:35.380Z,22.80
2022-10-19T05:42:15.392Z,28.60
2022-10-19T05:44:44.418Z,24.87
2022-10-19T05:47:19.044Z,26.23
2022-10-19T05:49:48.737Z,17.63
2022-10-19T05:52:17.836Z,21.77
2022-10-19T05:54:48.963Z,21.40
2022-10-19T05:57:17.457Z,15.77
2022-10-19T05:59:46.311Z,16.43
2022-10-19T06:02:17.313Z,15.23
2022-10-19T06:04:45.894Z,20.13
2022-10-19T06:07:14.559Z,23.80
2022-10-19T06:09:50.963Z,34.33
2022-10-19T06:12:24.306Z,34.87
2022-10-19T06:14:54.264Z,23.00
2022-10-19T06:17:22.853Z,25.87
2022-10-19T06:19:51.531Z,27.07
2022-10-19T06:22:21.024Z,18.70
2022-10-19T06:24:49.543Z,26.30
2022-10-19T06:27:18.278Z,28.37
2022-10-19T06:29:46.873Z,20.97
2022-10-19T06:32:15.530Z,24.87
2022-10-19T06:34:44.201Z,31.03
2022-10-19T06:40:23.970Z,23.37
2022-10-19T06:42:52.643Z,30.80
2022-10-19T06:45:21.241Z,21.37
2022-10-19T06:47:51.361Z,18.63
2022-10-19T06:50:20.704Z,27.63
2022-10-19T06:52:49.336Z,23.00
2022-10-19T06:55:18.075Z,27.93
2022-10-19T06:57:46.681Z,29.47
2022-10-19T07:00:16.055Z,26.37
2022-10-19T07:02:44.972Z,25.60
2022-10-19T07:05:13.569Z,29.80
2022-10-19T07:07:51.507Z,23.30
2022-10-19T07:10:21.513Z,31.30
2022-10-19T07:12:50.157Z,22.27
2022-10-19T07:15:18.782Z,28.00
2022-10-19T07:17:47.374Z,24.27
2022-10-19T07:20:16.073Z,29.40
2022-10-19T07:22:46.066Z,28.97
2022-10-19T07:25:14.729Z,35.03
2022-10-19T07:27:46.244Z,23.30
2022-10-19T07:30:14.882Z,32.30
2022-10-19T07:32:55.581Z,40.20
2022-10-19T07:35:24.091Z,35.67
2022-10-19T07:37:52.747Z,41.80
2022-10-19T07:40:21.486Z,41.13
2022-10-19T07:42:50.125Z,31.17
2022-10-19T07:45:24.566Z,36.80
2022-10-19T07:47:50.555Z,37.93
2022-10-19T07:50:20.635Z,35.10
2022-10-19T07:52:50.884Z,30.10
2022-10-19T07:55:19.949Z,37.63
2022-10-19T07:57:49.943Z,34.67
2022-10-19T08:00:19.055Z,37.63
2022-10-19T08:03:00.034Z,36.23
2022-10-19T08:05:19.226Z,35.57
2022-10-19T08:07:47.925Z,32.87
2022-10-19T08:10:16.573Z,35.17
2022-10-19T08:12:45.183Z,31.30
2022-10-19T08:15:13.835Z,35.35
2022-10-19T08:17:42.358Z,27.15
2022-10-19T08:20:15.477Z,31.80
2022-10-19T08:22:46.834Z,29.37
2022-10-19T08:25:17.008Z,29.87
2022-10-19T08:27:45.752Z,32.35
2022-10-19T08:30:17.808Z,28.67
2022-10-19T08:32:48.078Z,29.12
2022-10-19T08:35:16.852Z,27.55
2022-10-19T08:37:56.530Z,35.45
2022-10-19T08:40:52.205Z,33.38
2022-10-19T08:43:18.196Z,35.33
2022-10-19T08:45:57.975Z,36.38
2022-10-19T08:48:33.098Z,25.57
2022-10-19T08:51:05.838Z,28.87
2022-10-19T08:53:54.228Z,24.95
2022-10-19T08:56:51.099Z,22.27
2022-10-19T08:59:22.725Z,21.27
2022-10-19T09:01:58.104Z,22.70
2022-10-19T09:04:35.531Z,10.80
2022-10-19T09:07:29.463Z,19.90
2022-10-19T09:10:01.382Z,15.10
2022-10-19T09:12:44.971Z,12.95
2022-10-19T09:15:16.606Z,11.57
2022-10-19T09:17:45.303Z,9.15
2022-10-19T09:20:22.757Z,17.67
2022-10-19T09:22:54.297Z,13.65
2022-10-19T09:25:25.648Z,17.12
2022-10-19T09:28:06.053Z,16.48
2022-10-19T09:30:37.353Z,10.72
2022-10-19T09:33:09.111Z,12.20
2022-10-19T09:35:41.100Z,8.80
2022-10-19T09:38:12.323Z,13.15
2022-10-19T09:40:41.009Z,15.65
2022-10-19T09:43:12.427Z,12.07
2022-10-19T09:45:46.928Z,11.35
2022-10-19T09:48:30.425Z,12.98
2022-10-19T09:51:04.459Z,8.93
2022-10-19T09:53:34.740Z,15.65
2022-10-19T09:56:11.801Z,10.18
2022-10-19T09:58:43.602Z,18.82
2022-10-19T10:01:15.174Z,10.05
2022-10-19T10:03:53.846Z,12.00
2022-10-19T10:06:23.521Z,10.43
2022-10-19T10:08:56.396Z,7.37
2022-10-19T10:11:33.892Z,10.20
2022-10-19T10:14:10.000Z,11.45
2022-10-19T10:16:38.468Z,7.05
2022-10-19T10:19:15.318Z,16.67
2022-10-19T10:21:58.327Z,14.18
2022-10-19T10:24:29.430Z,5.28
2022-10-19T10:27:03.739Z,9.78
2022-10-19T10:29:35.169Z,19.20
2022-10-19T10:32:15.696Z,15.60
2022-10-19T10:35:02.610Z,16.77
2022-10-19T10:37:44.397Z,9.48
2022-10-19T10:40:23.677Z,14.90
2022-10-19T10:42:54.698Z,13.60
2022-10-19T10:45:31.872Z,11.22
2022-10-19T10:50:37.376Z,17.20
2022-10-19T10:53:11.880Z,15.55
2022-10-19T10:55:40.681Z,9.23
2022-10-19T10:58:13.945Z,8.93
2022-10-19T11:00:44.050Z,5.67
2022-10-19T11:03:29.014Z,12.93
2022-10-19T11:05:59.994Z,7.28
2022-10-19T11:08:43.804Z,9.28
2022-10-19T11:11:30.812Z,12.65
2022-10-19T11:14:28.489Z,6.72
2022-10-19T11:17:03.159Z,14.83
2022-10-19T11:19:40.426Z,14.45
2022-10-19T11:22:28.624Z,10.28
2022-10-19T11:26:07.092Z,6.78
2022-10-19T11:28:35.040Z,17.52
2022-10-19T11:31:12.366Z,12.00
2022-10-19T11:34:16.258Z,12.60
2022-10-19T11:37:23.817Z,11.28
2022-10-19T11:40:22.270Z,15.05
2022-10-19T11:43:03.312Z,5.97
2022-10-19T11:45:44.164Z,4.45
2022-10-19T11:48:24.776Z,15.75
2022-10-19T11:51:21.681Z,6.00
2022-10-19T11:53:57.534Z,6.05
2022-10-19T11:56:58.086Z,5.65
2022-10-19T11:59:42.948Z,7.95
2022-10-19T12:02:31.015Z,6.10
2022-10-19T12:05:08.720Z,4.37
2022-10-19T12:10:50.628Z,6.55
2022-10-19T12:13:23.134Z,8.03
2022-10-19T12:15:54.735Z,12.37
2022-10-19T12:18:32.500Z,10.25
2022-10-19T12:21:07.183Z,6.85
2022-10-19T12:23:40.953Z,9.58
2022-10-19T12:26:13.480Z,7.53
2022-10-19T12:28:56.876Z,8.40
2022-10-19T12:31:28.037Z,11.43
2022-10-19T12:34:08.647Z,17.45
2022-10-19T12:36:40.307Z,7.28
2022-10-19T12:39:31.783Z,14.80
2022-10-19T12:42:24.678Z,7.10
2022-10-19T12:45:12.246Z,10.82
2022-10-19T12:47:45.727Z,18.95
2022-10-19T12:50:14.434Z,9.80
2022-10-19T12:52:52.604Z,12.10
2022-10-19T12:55:28.746Z,6.08
2022-10-19T12:58:09.787Z,16.15
2022-10-19T13:00:41.516Z,17.12
2022-10-19T13:03:25.177Z,12.85
2022-10-19T13:06:03.828Z,10.08
2022-10-19T13:08:41.660Z,7.42
2022-10-19T13:11:13.093Z,13.22
2022-10-19T13:14:00.520Z,13.38
2022-10-19T13:16:37.235Z,8.63
2022-10-19T13:19:17.737Z,10.63
2022-10-19T13:28:48.418Z,11.55
2022-10-19T13:31:47.751Z,10.48
2022-10-19T13:35:26.385Z,7.75
2022-10-19T13:37:55.145Z,9.00
2022-10-19T13:40:37.456Z,8.55
2022-10-19T13:43:26.606Z,6.62
2022-10-19T13:46:43.185Z,9.38
2022-10-19T13:49:05.884Z,5.90
2022-10-19T13:51:54.240Z,10.03
2022-10-19T13:54:47.156Z,6.33
2022-10-19T13:57:44.223Z,7.83
2022-10-19T14:00:30.151Z,7.87
2022-10-19T14:03:11.703Z,15.65
2022-10-19T14:05:58.948Z,15.13
2022-10-19T14:08:36.626Z,10.75
2022-10-19T14:11:08.250Z,9.48
2022-10-19T14:13:36.946Z,14.60
2022-10-19T14:16:05.875Z,7.17
2022-10-19T14:18:37.663Z,14.18
2022-10-19T14:21:08.630Z,11.08
2022-10-19T14:23:41.806Z,12.63
2022-10-19T14:26:35.124Z,14.15
2022-10-19T14:29:05.276Z,17.35
2022-10-19T14:31:39.341Z,9.18
2022-10-19T14:34:12.733Z,11.18
2022-10-19T14:36:47.307Z,10.65
2022-10-19T14:39:34.659Z,11.85
2022-10-19T14:42:08.718Z,10.45
2022-10-19T14:44:43.670Z,12.82
2022-10-19T14:47:32.381Z,9.68
2022-10-19T14:50:08.528Z,11.55
2022-10-19T14:55:29.485Z,8.65
2022-10-19T14:58:00.637Z,14.35
2022-10-19T15:00:40.845Z,9.00
2022-10-19T15:03:22.148Z,10.40
2022-10-19T15:05:54.304Z,9.75
2022-10-19T15:08:42.174Z,12.10
2022-10-19T15:11:32.048Z,10.23
2022-10-19T15:14:14.433Z,11.97
2022-10-19T15:16:49.647Z,13.00
2022-10-19T15:19:27.356Z,9.78
2022-10-19T15:22:20.304Z,12.93
2022-10-19T15:25:03.174Z,14.00
2022-10-19T15:27:40.185Z,10.10
2022-10-19T15:30:32.743Z,13.83
2022-10-19T15:33:07.200Z,10.13
2022-10-19T15:35:49.698Z,12.43
2022-10-19T15:38:30.736Z,14.63
2022-10-19T15:41:01.572Z,15.18
2022-10-19T15:43:39.114Z,12.45
2022-10-19T15:46:16.777Z,11.48
2022-10-19T15:48:53.659Z,16.37
2022-10-19T15:51:31.033Z,12.37
2022-10-19T15:54:06.550Z,16.65
2022-10-19T15:56:40.925Z,13.32
2022-10-19T15:59:21.371Z,13.88
2022-10-19T16:01:53.718Z,18.62
2022-10-19T16:04:24.260Z,18.90
2022-10-19T16:06:54.682Z,19.27
2022-10-19T16:09:24.912Z,21.42
2022-10-19T16:11:55.479Z,18.60
2022-10-19T16:14:31.888Z,20.20
2022-10-19T16:17:02.921Z,16.45
2022-10-19T16:19:40.541Z,13.10
2022-10-19T16:22:12.515Z,16.67
2022-10-19T16:24:44.407Z,17.50
2022-10-19T16:27:14.639Z,24.15
2022-10-19T16:29:44.402Z,20.43
2022-10-19T16:32:14.841Z,25.55
2022-10-19T16:34:46.001Z,19.40
2022-10-19T16:37:16.867Z,15.83
2022-10-19T16:39:49.484Z,17.35
2022-10-19T16:42:18.038Z,23.55
2022-10-19T16:44:46.574Z,16.75
2022-10-19T16:47:16.927Z,21.65
2022-10-19T16:49:47.024Z,20.43
2022-10-19T16:52:19.168Z,16.80
2022-10-19T16:54:47.753Z,23.00
2022-10-19T16:57:18.955Z,19.77
2022-10-19T16:59:50.966Z,26.62
2022-10-19T17:02:22.092Z,18.27
2022-10-19T17:04:50.889Z,17.80
2022-10-19T17:07:19.943Z,21.82
2022-10-19T17:09:54.444Z,17.27
2022-10-19T17:12:20.614Z,18.00
2022-10-19T17:14:49.237Z,17.17
2022-10-19T17:17:17.827Z,18.10
2022-10-19T17:19:50.748Z,18.40
2022-10-19T17:22:19.340Z,18.77
2022-10-19T17:24:51.158Z,17.23
2022-10-19T17:27:19.713Z,17.40
2022-10-19T17:29:49.821Z,28.27
2022-10-19T17:32:21.207Z,32.17
2022-10-19T17:34:49.915Z,20.43
2022-10-19T17:37:18.721Z,20.77
2022-10-19T17:39:48.824Z,20.10
2022-10-19T17:42:17.705Z,26.68
2022-10-19T17:44:47.564Z,22.35
2022-10-19T17:47:16.227Z,23.57
2022-10-19T17:49:44.795Z,19.05
2022-10-19T17:52:18.272Z,19.95
2022-10-19T17:54:54.655Z,27.25
2022-10-19T17:57:17.311Z,22.52
2022-10-19T17:59:52.959Z,22.62
2022-10-19T18:02:19.493Z,21.65
2022-10-19T18:04:48.259Z,15.60
2022-10-19T18:07:18.711Z,20.08
2022-10-19T18:09:48.836Z,42.08
2022-10-19T18:12:17.321Z,41.18
2022-10-19T18:14:46.696Z,18.27
2022-10-19T18:17:18.736Z,19.67
2022-10-19T18:19:56.346Z,25.23
2022-10-19T18:22:31.130Z,82.33
2022-10-19T18:25:02.440Z,23.20
2022-10-19T18:27:31.248Z,32.15
2022-10-19T18:30:00.117Z,55.05
2022-10-19T18:32:30.323Z,16.50
2022-10-19T18:34:59.178Z,16.75
2022-10-19T18:37:30.009Z,25.23
2022-10-19T18:39:58.592Z,25.97
2022-10-19T18:42:27.186Z,17.70
2022-10-19T18:45:12.411Z,14.98
2022-10-19T18:47:44.032Z,17.77
2022-10-19T18:52:42.699Z,23.07
2022-10-19T18:55:11.756Z,24.65
2022-10-19T18:57:40.545Z,18.57
2022-10-19T19:00:10.263Z,18.23
2022-10-19T19:02:46.324Z,15.88
2022-10-19T19:05:09.534Z,20.12
2022-10-19T19:07:38.653Z,18.62
2022-10-19T19:10:08.227Z,15.78
2022-10-19T19:12:38.207Z,13.35
2022-10-19T19:15:08.541Z,14.53
2022-10-19T19:17:38.896Z,24.45
2022-10-19T19:20:08.151Z,18.90
2022-10-19T19:22:39.744Z,27.37
2022-10-19T19:25:11.399Z,19.10
2022-10-19T19:27:40.078Z,17.80
2022-10-19T19:30:11.101Z,19.77
2022-10-19T19:32:39.777Z,21.35
2022-10-19T19:35:08.625Z,20.12
2022-10-19T19:37:37.766Z,19.57
2022-10-19T19:40:07.199Z,19.32
2022-10-19T19:42:36.223Z,16.17
2022-10-19T19:45:04.984Z,16.12
2022-10-19T19:47:34.118Z,25.97
2022-10-19T19:50:06.111Z,24.72
2022-10-19T19:52:39.434Z,19.82
2022-10-19T19:55:05.274Z,18.95
2022-10-19T19:57:34.183Z,20.85
2022-10-19T20:00:18.736Z,16.25
2022-10-19T20:02:45.694Z,20.72
2022-10-19T20:05:14.946Z,24.98
2022-10-19T20:07:49.520Z,17.48
2022-10-19T20:10:20.398Z,21.23
2022-10-19T20:12:52.907Z,19.60
2022-10-19T20:15:24.003Z,16.90
2022-10-19T20:17:52.622Z,17.35
2022-10-19T20:20:22.252Z,22.35
2022-10-19T20:22:51.452Z,21.70
2022-10-19T20:25:20.103Z,19.73
2022-10-19T20:27:48.760Z,21.15
2022-10-19T20:30:17.409Z,23.52
2022-10-19T20:32:48.769Z,21.20
2022-10-19T20:35:17.459Z,19.52
2022-10-19T20:37:50.630Z,16.82
2022-10-19T20:40:19.873Z,16.97
2022-10-19T20:42:48.497Z,19.30
2022-10-19T20:45:17.186Z,17.50
2022-10-19T20:47:45.743Z,26.85
2022-10-19T20:50:16.084Z,19.05
2022-10-19T20:56:22.994Z,20.12
2022-10-19T21:01:44.340Z,21.75
2022-10-19T21:04:22.083Z,17.00
2022-10-19T21:06:55.057Z,19.02
2022-10-19T21:09:27.407Z,16.70
2022-10-19T21:11:56.251Z,24.63
2022-10-19T21:14:29.529Z,20.72
2022-10-19T21:17:00.541Z,20.90
2022-10-19T21:19:31.150Z,19.27
2022-10-19T21:22:02.330Z,18.60
2022-10-19T21:24:33.910Z,20.95
2022-10-19T21:27:04.887Z,19.23
2022-10-19T21:29:33.980Z,21.27
2022-10-19T21:32:02.935Z,22.65
2022-10-19T21:34:32.568Z,21.35
2022-10-19T21:37:01.664Z,19.45
2022-10-19T21:39:32.980Z,22.50
2022-10-19T21:42:02.681Z,23.25
2022-10-19T21:44:31.277Z,23.70
2022-10-19T21:46:59.893Z,37.25
2022-10-19T21:49:28.603Z,22.82
2022-10-19T21:51:57.727Z,21.70
2022-10-19T21:54:27.594Z,23.15
2022-10-19T21:56:57.778Z,22.07
2022-10-19T21:59:26.648Z,28.62
2022-10-19T22:01:56.479Z,24.95
2022-10-19T22:04:25.455Z,24.37
2022-10-19T22:06:54.106Z,23.85
2022-10-19T22:09:23.873Z,22.77
2022-10-19T22:11:52.655Z,21.55
2022-10-19T22:14:22.959Z,27.35
2022-10-19T22:16:51.572Z,25.40
2022-10-19T22:19:20.298Z,30.48
2022-10-19T22:21:48.935Z,23.92
2022-10-19T22:24:17.856Z,23.98
2022-10-19T22:26:50.808Z,30.25
2022-10-19T22:29:22.543Z,24.82
2022-10-19T22:31:53.296Z,25.55
2022-10-19T22:34:21.937Z,23.90
2022-10-19T22:36:50.490Z,25.27
2022-10-19T22:39:26.917Z,26.62
2022-10-19T22:41:55.153Z,23.10
2022-10-19T22:44:24.853Z,23.00
2022-10-19T22:46:53.528Z,28.10
2022-10-19T22:49:25.239Z,24.50
2022-10-19T22:51:53.800Z,27.50
2022-10-19T22:54:22.393Z,25.05
2022-10-19T22:56:51.071Z,27.75
2022-10-19T22:59:19.668Z,27.65
2022-10-19T23:01:48.510Z,25.60
2022-10-19T23:04:17.211Z,24.27
2022-10-19T23:06:45.837Z,31.68
2022-10-19T23:09:15.969Z,28.42
2022-10-19T23:11:44.994Z,31.27
2022-10-19T23:14:13.644Z,28.17
2022-10-19T23:16:42.275Z,24.70
2022-10-19T23:19:10.955Z,28.35
2022-10-19T23:21:39.664Z,30.95
2022-10-19T23:24:08.249Z,34.00
2022-10-19T23:26:37.727Z,28.98
2022-10-19T23:29:06.397Z,31.97
2022-10-19T23:31:35.168Z,31.52
2022-10-19T23:34:05.062Z,29.40
2022-10-19T23:36:37.794Z,32.45
2022-10-19T23:39:08.023Z,31.68
2022-10-19T23:41:36.769Z,31.87
2022-10-19T23:44:05.938Z,35.13
2022-10-19T23:46:34.683Z,33.85
2022-10-19T23:49:03.361Z,28.83
2022-10-19T23:51:32.102Z,38.20
2022-10-19T23:54:02.015Z,34.08
2022-10-19T23:56:31.268Z,35.25
2022-10-19T23:58:59.807Z,31.87
